createdAt,value
2023-05-24T00:02:16.507Z,13.20
2023-05-24T00:04:46.645Z,13.02
2023-05-24T00:07:16.714Z,16.42
2023-05-24T00:09:46.460Z,15.60
2023-05-24T00:12:16.616Z,18.65
2023-05-24T00:14:48.944Z,15.50
2023-05-24T00:17:21.022Z,14.68
2023-05-24T00:19:50.953Z,13.40
2023-05-24T00:22:21.456Z,15.27
2023-05-24T00:24:51.660Z,16.75
2023-05-24T00:27:21.390Z,16.02
2023-05-24T00:29:53.734Z,14.05
2023-05-24T00:32:24.428Z,13.30
2023-05-24T00:34:54.233Z,23.70
2023-05-24T00:37:23.922Z,19.35
2023-05-24T00:39:53.696Z,17.92
2023-05-24T00:42:23.404Z,18.10
2023-05-24T00:44:55.746Z,15.40
2023-05-24T00:47:25.656Z,16.42
2023-05-24T00:49:55.512Z,12.95
2023-05-24T00:52:25.701Z,14.10
2023-05-24T00:54:55.524Z,13.32
2023-05-24T00:57:25.258Z,18.17
2023-05-24T00:59:58.431Z,17.48
2023-05-24T01:02:28.437Z,15.02
2023-05-24T01:05:00.126Z,14.90
2023-05-24T01:07:37.997Z,22.45
2023-05-24T01:10:13.192Z,18.58
2023-05-24T01:12:53.833Z,12.30
2023-05-24T01:15:31.317Z,23.58
2023-05-24T01:18:06.181Z,18.70
2023-05-24T01:20:38.719Z,16.50
2023-05-24T01:23:13.390Z,25.13
2023-05-24T01:25:54.864Z,12.93
2023-05-24T01:28:27.576Z,21.10
2023-05-24T01:30:57.880Z,14.60
2023-05-24T01:33:27.677Z,17.58
2023-05-24T01:35:59.793Z,13.90
2023-05-24T01:38:29.545Z,19.23
2023-05-24T01:41:03.088Z,11.68
2023-05-24T01:43:41.177Z,12.10
2023-05-24T01:46:19.399Z,15.35
2023-05-24T01:48:56.257Z,15.60
2023-05-24T01:51:27.945Z,14.70
2023-05-24T01:53:58.155Z,15.10
2023-05-24T01:56:29.677Z,16.30
2023-05-24T01:59:02.270Z,18.58
2023-05-24T02:01:33.296Z,17.33
2023-05-24T02:04:03.246Z,16.43
2023-05-24T02:06:32.922Z,17.00
2023-05-24T02:09:02.836Z,13.82
2023-05-24T02:11:32.692Z,20.73
2023-05-24T02:14:05.014Z,14.40
2023-05-24T02:16:34.907Z,13.70
2023-05-24T02:19:05.774Z,14.50
2023-05-24T02:21:36.566Z,10.10
2023-05-24T02:24:07.863Z,15.25
2023-05-24T02:26:37.642Z,14.75
2023-05-24T02:29:09.975Z,14.50
2023-05-24T02:31:39.994Z,14.30
2023-05-24T02:34:09.734Z,15.47
2023-05-24T02:36:39.601Z,18.27
2023-05-24T02:39:09.309Z,18.92
2023-05-24T02:41:39.474Z,16.73
2023-05-24T02:44:11.936Z,18.25
2023-05-24T02:46:41.753Z,15.60
2023-05-24T02:49:11.661Z,10.80
2023-05-24T02:51:41.434Z,11.55
2023-05-24T02:54:11.136Z,15.77
2023-05-24T02:56:42.407Z,20.90
2023-05-24T02:59:15.098Z,15.37
2023-05-24T03:01:45.402Z,12.57
2023-05-24T03:04:15.167Z,15.88
2023-05-24T03:06:45.914Z,15.03
2023-05-24T03:09:16.931Z,13.30
2023-05-24T03:11:47.513Z,17.92
2023-05-24T03:14:22.728Z,12.32
2023-05-24T03:16:54.256Z,16.45
2023-05-24T03:19:24.175Z,13.98
2023-05-24T03:21:53.899Z,17.75
2023-05-24T03:24:23.630Z,14.85
2023-05-24T03:26:53.402Z,16.93
2023-05-24T03:29:25.880Z,16.05
2023-05-24T03:31:56.805Z,16.65
2023-05-24T03:34:26.950Z,15.90
2023-05-24T03:36:57.333Z,16.38
2023-05-24T03:39:27.043Z,16.45
2023-05-24T03:42:00.815Z,19.95
2023-05-24T03:44:33.143Z,14.27
2023-05-24T03:47:03.933Z,12.57
2023-05-24T03:49:34.988Z,12.93
2023-05-24T03:52:05.120Z,13.90
2023-05-24T03:54:34.954Z,22.85
2023-05-24T03:57:04.687Z,17.03
2023-05-24T03:59:38.762Z,17.63
2023-05-24T04:02:10.310Z,12.55
2023-05-24T04:04:40.102Z,22.57
2023-05-24T04:07:12.087Z,18.17
2023-05-24T04:09:42.082Z,13.85
2023-05-24T04:12:11.834Z,14.77
2023-05-24T04:14:47.282Z,13.10
2023-05-24T04:17:17.283Z,10.32
2023-05-24T04:19:47.203Z,17.70
2023-05-24T04:22:17.790Z,14.03
2023-05-24T04:24:48.008Z,15.25
2023-05-24T04:27:18.129Z,12.55
2023-05-24T04:29:53.352Z,14.15
2023-05-24T04:32:23.657Z,12.75
2023-05-24T04:34:53.418Z,15.40
2023-05-24T04:37:24.795Z,13.75
2023-05-24T04:39:54.671Z,13.80
2023-05-24T04:42:24.813Z,12.70
2023-05-24T04:44:57.200Z,12.38
2023-05-24T04:47:27.024Z,13.50
2023-05-24T04:49:56.823Z,15.32
2023-05-24T04:52:26.667Z,13.15
2023-05-24T04:54:58.100Z,15.50
2023-05-24T04:57:27.963Z,14.30
2023-05-24T05:00:00.315Z,18.60
2023-05-24T05:02:30.078Z,14.13
2023-05-24T05:04:59.821Z,18.53
2023-05-24T05:07:29.563Z,15.48
2023-05-24T05:09:59.411Z,18.45
2023-05-24T05:12:29.118Z,24.17
2023-05-24T05:15:01.497Z,16.00
2023-05-24T05:17:31.453Z,20.38
2023-05-24T05:20:01.216Z,18.65
2023-05-24T05:22:31.375Z,16.73
2023-05-24T05:25:01.127Z,14.55
2023-05-24T05:27:30.847Z,17.10
2023-05-24T05:30:03.221Z,16.55
2023-05-24T05:32:33.167Z,21.60
2023-05-24T05:35:03.014Z,17.30
2023-05-24T05:37:32.765Z,15.00
2023-05-24T05:40:02.438Z,18.23
2023-05-24T05:42:32.143Z,23.42
2023-05-24T05:45:04.449Z,28.97
2023-05-24T05:47:34.309Z,24.92
2023-05-24T05:50:04.101Z,28.20
2023-05-24T05:52:33.855Z,28.13
2023-05-24T05:55:03.724Z,33.80
2023-05-24T05:57:33.480Z,32.63
2023-05-24T06:00:06.229Z,28.88
2023-05-24T06:02:41.809Z,34.33
2023-05-24T06:05:13.926Z,37.28
2023-05-24T06:07:44.377Z,23.10
2023-05-24T06:10:14.816Z,29.98
2023-05-24T06:12:44.549Z,29.27
2023-05-24T06:15:16.982Z,31.25
2023-05-24T06:17:48.133Z,25.33
2023-05-24T06:20:18.172Z,41.40
2023-05-24T06:22:49.857Z,28.10
2023-05-24T06:25:21.139Z,35.83
2023-05-24T06:27:51.213Z,34.55
2023-05-24T06:30:23.695Z,30.83
2023-05-24T06:32:53.482Z,33.60
2023-05-24T06:35:23.293Z,34.90
2023-05-24T06:37:53.018Z,31.67
2023-05-24T06:40:22.753Z,33.78
2023-05-24T06:42:52.450Z,30.48
2023-05-24T06:45:24.770Z,36.83
2023-05-24T06:47:55.563Z,35.40
2023-05-24T06:50:25.386Z,39.42
2023-05-24T06:52:55.130Z,34.33
2023-05-24T06:55:25.079Z,23.85
2023-05-24T06:57:54.819Z,27.77
2023-05-24T07:00:28.037Z,24.25
2023-05-24T07:02:58.268Z,26.35
2023-05-24T07:05:28.031Z,25.88
2023-05-24T07:07:57.804Z,28.67
2023-05-24T07:10:27.657Z,25.85
2023-05-24T07:12:57.351Z,29.53
2023-05-24T07:15:29.737Z,27.98
2023-05-24T07:18:00.372Z,28.23
2023-05-24T07:20:30.212Z,30.70
2023-05-24T07:23:00.669Z,33.20
2023-05-24T07:25:30.454Z,30.30
2023-05-24T07:28:00.221Z,27.33
2023-05-24T07:30:33.114Z,31.33
2023-05-24T07:33:03.422Z,23.17
2023-05-24T07:35:33.196Z,26.20
2023-05-24T07:38:02.910Z,23.52
2023-05-24T07:40:32.689Z,24.83
2023-05-24T07:43:04.022Z,22.40
2023-05-24T07:45:36.864Z,24.58
2023-05-24T07:48:06.941Z,25.52
2023-05-24T07:50:37.412Z,22.80
2023-05-24T07:53:07.487Z,19.75
2023-05-24T07:55:37.559Z,23.85
2023-05-24T07:58:07.318Z,21.70
2023-05-24T08:00:39.829Z,20.23
2023-05-24T08:03:09.649Z,25.27
2023-05-24T08:05:39.583Z,21.67
2023-05-24T08:08:09.762Z,22.50
2023-05-24T08:10:39.521Z,22.17
2023-05-24T08:13:09.262Z,20.67
2023-05-24T08:15:41.854Z,18.95
2023-05-24T08:18:11.799Z,19.45
2023-05-24T08:20:41.739Z,17.85
2023-05-24T08:23:11.726Z,16.90
2023-05-24T08:25:41.815Z,19.92
2023-05-24T08:28:11.961Z,16.73
2023-05-24T08:30:44.710Z,23.20
2023-05-24T08:33:14.605Z,18.45
2023-05-24T08:35:44.533Z,20.42
2023-05-24T08:38:14.375Z,13.70
2023-05-24T08:40:44.096Z,17.27
2023-05-24T08:43:14.658Z,18.98
2023-05-24T08:45:47.412Z,18.50
2023-05-24T08:48:18.518Z,19.17
2023-05-24T08:50:48.754Z,26.67
2023-05-24T08:53:18.739Z,22.13
2023-05-24T08:55:48.607Z,19.95
2023-05-24T08:58:19.771Z,17.23
2023-05-24T09:00:52.254Z,20.75
2023-05-24T09:03:22.488Z,22.70
2023-05-24T09:05:52.398Z,20.63
2023-05-24T09:08:22.852Z,18.73
2023-05-24T09:10:54.963Z,20.20
2023-05-24T09:13:26.620Z,22.35
2023-05-24T09:15:59.121Z,25.02
2023-05-24T09:18:28.949Z,15.27
2023-05-24T09:20:58.705Z,15.05
2023-05-24T09:23:29.038Z,22.67
2023-05-24T09:25:58.832Z,24.38
2023-05-24T09:28:28.544Z,24.40
2023-05-24T09:31:07.765Z,20.15
2023-05-24T09:33:38.316Z,20.75
2023-05-24T09:36:09.096Z,18.13
2023-05-24T09:38:38.892Z,19.55
2023-05-24T09:41:11.061Z,17.95
2023-05-24T09:43:51.104Z,20.80
2023-05-24T09:46:23.735Z,15.07
2023-05-24T09:49:00.739Z,21.23
2023-05-24T09:51:30.570Z,19.02
2023-05-24T09:54:00.729Z,18.80
2023-05-24T09:56:30.918Z,19.58
2023-05-24T09:59:02.351Z,23.33
2023-05-24T10:01:36.195Z,19.13
2023-05-24T10:04:09.388Z,14.60
2023-05-24T10:06:40.274Z,19.75
2023-05-24T10:09:10.377Z,14.98
2023-05-24T10:11:40.641Z,18.95
2023-05-24T10:14:12.606Z,17.50
2023-05-24T10:16:45.062Z,18.23
2023-05-24T10:19:14.835Z,19.90
2023-05-24T10:21:47.798Z,26.65
2023-05-24T10:24:20.530Z,22.17
2023-05-24T10:26:51.142Z,20.70
2023-05-24T10:29:30.681Z,16.60
2023-05-24T10:32:04.630Z,22.55
2023-05-24T10:34:34.456Z,18.67
2023-05-24T10:37:04.252Z,24.48
2023-05-24T10:39:36.198Z,21.58
2023-05-24T10:42:09.546Z,18.50
2023-05-24T10:44:40.072Z,24.85
2023-05-24T10:47:17.223Z,21.92
2023-05-24T10:49:54.382Z,22.88
2023-05-24T10:52:24.218Z,20.88
2023-05-24T10:55:08.207Z,24.05
2023-05-24T10:57:38.462Z,18.42
2023-05-24T11:03:11.893Z,17.83
2023-05-24T11:05:53.567Z,18.52
2023-05-24T11:08:28.357Z,20.60
2023-05-24T11:13:44.203Z,20.75
2023-05-24T11:16:38.205Z,18.00
2023-05-24T11:19:19.461Z,18.97
2023-05-24T11:21:50.192Z,21.30
2023-05-24T11:24:21.005Z,23.63
2023-05-24T11:26:50.819Z,17.43
2023-05-24T11:29:22.962Z,17.95
2023-05-24T11:31:54.480Z,18.85
2023-05-24T11:34:27.548Z,24.35
2023-05-24T11:36:57.452Z,21.27
2023-05-24T11:39:27.734Z,21.03
2023-05-24T11:41:57.476Z,18.43
2023-05-24T11:44:27.424Z,17.08
2023-05-24T11:47:01.173Z,24.23
2023-05-24T11:49:33.674Z,21.92
2023-05-24T11:52:04.278Z,34.97
2023-05-24T11:54:37.404Z,14.68
2023-05-24T11:57:08.404Z,22.53
2023-05-24T11:59:38.899Z,16.10
2023-05-24T12:02:09.534Z,17.33
2023-05-24T12:04:41.928Z,21.33
2023-05-24T12:07:15.498Z,17.60
2023-05-24T12:09:45.375Z,25.58
2023-05-24T12:12:15.145Z,29.73
2023-05-24T12:14:44.868Z,22.48
2023-05-24T12:17:19.386Z,20.20
2023-05-24T12:19:53.029Z,19.70
2023-05-24T12:22:22.852Z,23.43
2023-05-24T12:24:52.902Z,21.52
2023-05-24T12:27:25.075Z,23.58
2023-05-24T12:29:55.268Z,23.10
2023-05-24T12:32:25.216Z,15.93
2023-05-24T12:34:57.853Z,22.48
2023-05-24T12:37:28.194Z,21.13
2023-05-24T12:39:57.935Z,18.65
2023-05-24T12:42:29.433Z,19.33
2023-05-24T12:44:59.188Z,21.67
2023-05-24T12:47:29.117Z,21.48
2023-05-24T12:50:01.551Z,18.65
2023-05-24T12:52:31.324Z,18.38
2023-05-24T12:55:01.061Z,20.10
2023-05-24T12:57:31.252Z,16.17
2023-05-24T13:00:01.117Z,18.38
2023-05-24T13:02:30.838Z,17.40
2023-05-24T13:05:04.206Z,22.35
2023-05-24T13:07:34.090Z,24.45
2023-05-24T13:10:03.817Z,19.03
2023-05-24T13:12:33.549Z,19.38
2023-05-24T13:15:03.323Z,21.45
2023-05-24T13:17:33.063Z,24.92
2023-05-24T13:20:07.836Z,17.77
2023-05-24T13:22:38.029Z,27.85
2023-05-24T13:25:09.506Z,20.92
2023-05-24T13:27:39.234Z,21.73
2023-05-24T13:30:11.288Z,20.13
2023-05-24T13:32:41.561Z,21.65
2023-05-24T13:35:14.144Z,22.48
2023-05-24T13:37:43.878Z,22.60
2023-05-24T13:40:14.359Z,19.70
2023-05-24T13:42:44.111Z,22.15
2023-05-24T13:45:14.857Z,19.48
2023-05-24T13:47:44.875Z,17.83
2023-05-24T13:50:17.492Z,19.95
2023-05-24T13:52:47.304Z,21.20
2023-05-24T13:55:17.381Z,21.38
2023-05-24T13:57:51.821Z,21.50
2023-05-24T14:00:23.215Z,23.70
2023-05-24T14:02:53.703Z,26.65
2023-05-24T14:05:28.195Z,24.83
2023-05-24T14:08:00.512Z,23.40
2023-05-24T14:10:30.655Z,21.38
2023-05-24T14:13:20.777Z,20.13
2023-05-24T14:15:51.040Z,27.10
2023-05-24T14:18:21.358Z,25.33
2023-05-24T14:20:53.870Z,25.70
2023-05-24T14:23:23.765Z,23.63
2023-05-24T14:25:53.591Z,22.23
2023-05-24T14:28:23.396Z,21.65
2023-05-24T14:30:53.126Z,18.05
2023-05-24T14:33:23.496Z,28.88
2023-05-24T14:35:55.997Z,20.95
2023-05-24T14:38:26.157Z,19.50
2023-05-24T14:40:57.088Z,20.23
2023-05-24T14:43:26.872Z,17.35
2023-05-24T14:45:56.649Z,23.73
2023-05-24T14:48:26.457Z,20.05
2023-05-24T14:50:58.976Z,26.67
2023-05-24T14:53:28.836Z,23.70
2023-05-24T14:55:58.761Z,21.98
2023-05-24T14:58:28.809Z,19.40
2023-05-24T15:00:58.596Z,19.97
2023-05-24T15:03:28.764Z,26.58
2023-05-24T15:06:01.417Z,22.08
2023-05-24T15:08:31.140Z,25.08
2023-05-24T15:11:00.932Z,20.33
2023-05-24T15:13:31.284Z,17.63
2023-05-24T15:16:01.027Z,19.50
2023-05-24T15:18:32.774Z,21.37
2023-05-24T15:21:05.194Z,23.52
2023-05-24T15:23:35.098Z,37.67
2023-05-24T15:26:04.887Z,31.23
2023-05-24T15:28:34.655Z,25.98
2023-05-24T15:31:04.677Z,22.00
2023-05-24T15:33:35.028Z,24.17
2023-05-24T15:36:07.954Z,19.50
2023-05-24T15:38:38.899Z,23.40
2023-05-24T15:41:09.486Z,21.15
2023-05-24T15:43:39.851Z,22.92
2023-05-24T15:46:09.923Z,22.02
2023-05-24T15:48:39.894Z,20.20
2023-05-24T15:53:45.301Z,15.27
2023-05-24T15:56:15.048Z,21.42
2023-05-24T15:58:45.978Z,20.52
2023-05-24T16:01:15.793Z,28.05
2023-05-24T16:03:45.538Z,20.50
2023-05-24T16:06:18.127Z,19.58
2023-05-24T16:08:49.550Z,21.70
2023-05-24T16:11:21.747Z,23.90
2023-05-24T16:13:53.655Z,17.88
2023-05-24T16:16:23.934Z,21.15
2023-05-24T16:18:53.768Z,18.40
2023-05-24T16:21:28.432Z,22.90
2023-05-24T16:24:01.413Z,24.00
2023-05-24T16:26:32.320Z,21.35
2023-05-24T16:29:02.343Z,19.55
2023-05-24T16:31:33.213Z,15.30
2023-05-24T16:34:03.062Z,19.70
2023-05-24T16:36:35.455Z,16.23
2023-05-24T16:39:05.260Z,17.95
2023-05-24T16:41:37.857Z,16.95
2023-05-24T16:44:07.842Z,19.98
2023-05-24T16:46:37.652Z,20.13
2023-05-24T16:49:11.065Z,18.15
2023-05-24T16:51:43.591Z,19.30
2023-05-24T16:54:16.448Z,15.03
2023-05-24T16:56:46.440Z,16.70
2023-05-24T16:59:17.197Z,23.48
2023-05-24T17:01:50.479Z,20.08
2023-05-24T17:04:20.681Z,20.97
2023-05-24T17:06:53.085Z,16.33
2023-05-24T17:09:22.857Z,17.33
2023-05-24T17:11:52.667Z,20.38
2023-05-24T17:14:22.474Z,23.83
2023-05-24T17:16:52.314Z,19.83
2023-05-24T17:19:22.427Z,20.20
2023-05-24T17:21:54.812Z,17.85
2023-05-24T17:24:27.760Z,20.27
2023-05-24T17:26:57.634Z,21.85
2023-05-24T17:29:29.992Z,23.08
2023-05-24T17:31:59.966Z,16.80
2023-05-24T17:34:29.974Z,17.67
2023-05-24T17:37:02.782Z,17.75
2023-05-24T17:39:32.569Z,15.05
2023-05-24T17:42:03.159Z,16.52
2023-05-24T17:44:32.996Z,17.00
2023-05-24T17:47:02.842Z,21.60
2023-05-24T17:49:32.715Z,19.83
2023-05-24T17:52:05.173Z,17.47
2023-05-24T17:54:35.030Z,23.52
2023-05-24T17:57:04.793Z,19.13
2023-05-24T17:59:36.188Z,20.90
2023-05-24T18:02:06.459Z,17.85
2023-05-24T18:04:36.201Z,19.98
2023-05-24T18:07:08.526Z,15.30
2023-05-24T18:09:38.347Z,15.45
2023-05-24T18:12:08.889Z,19.65
2023-05-24T18:14:38.795Z,17.63
2023-05-24T18:17:09.434Z,17.33
2023-05-24T18:19:39.251Z,15.70
2023-05-24T18:22:11.936Z,15.13
2023-05-24T18:24:41.746Z,17.55
2023-05-24T18:27:11.505Z,19.80
2023-05-24T18:29:41.370Z,17.25
2023-05-24T18:32:11.225Z,19.73
2023-05-24T18:34:40.984Z,22.75
2023-05-24T18:37:13.616Z,17.85
2023-05-24T18:39:43.667Z,19.88
2023-05-24T18:42:13.613Z,19.38
2023-05-24T18:44:43.372Z,14.15
2023-05-24T18:47:13.688Z,17.80
2023-05-24T18:49:43.474Z,18.65
2023-05-24T18:52:16.006Z,24.15
2023-05-24T18:54:45.897Z,13.93
2023-05-24T18:57:15.697Z,16.13
2023-05-24T18:59:45.488Z,19.27
2023-05-24T19:02:15.261Z,20.25
2023-05-24T19:04:48.287Z,19.55
2023-05-24T19:07:20.734Z,16.92
2023-05-24T19:09:50.538Z,21.83
2023-05-24T19:12:20.312Z,18.58
2023-05-24T19:14:50.057Z,17.73
2023-05-24T19:17:20.060Z,23.15
2023-05-24T19:19:49.815Z,13.05
2023-05-24T19:22:22.297Z,19.85
2023-05-24T19:24:52.133Z,16.17
2023-05-24T19:27:22.003Z,16.35
2023-05-24T19:29:51.782Z,18.60
2023-05-24T19:32:22.453Z,14.85
2023-05-24T19:34:52.510Z,16.10
2023-05-24T19:37:24.864Z,18.70
2023-05-24T19:39:54.587Z,17.25
2023-05-24T19:42:24.311Z,17.13
2023-05-24T19:44:59.005Z,15.15
2023-05-24T19:47:29.017Z,17.38
2023-05-24T19:49:59.150Z,16.75
2023-05-24T19:52:31.758Z,22.25
2023-05-24T19:55:01.619Z,14.32
2023-05-24T19:57:31.393Z,18.83
2023-05-24T20:00:01.120Z,22.45
2023-05-24T20:02:30.979Z,18.70
2023-05-24T20:05:00.895Z,19.20
2023-05-24T20:07:33.230Z,20.10
2023-05-24T20:10:05.281Z,21.85
2023-05-24T20:12:35.154Z,22.23
2023-05-24T20:15:04.989Z,17.83
2023-05-24T20:17:34.872Z,14.30
2023-05-24T20:20:04.685Z,14.68
2023-05-24T20:22:37.081Z,16.23
2023-05-24T20:25:07.961Z,17.80
2023-05-24T20:27:37.798Z,23.63
2023-05-24T20:30:09.094Z,23.65
2023-05-24T20:32:38.834Z,14.60
2023-05-24T20:35:10.002Z,19.88
2023-05-24T20:37:42.457Z,15.73
2023-05-24T20:40:12.864Z,19.05
2023-05-24T20:42:42.581Z,19.40
2023-05-24T20:45:13.517Z,23.17
2023-05-24T20:47:43.340Z,17.17
2023-05-24T20:50:13.504Z,22.85
2023-05-24T20:52:46.287Z,18.00
2023-05-24T20:55:16.457Z,20.80
2023-05-24T20:57:46.177Z,21.75
2023-05-24T21:00:16.333Z,20.42
2023-05-24T21:02:46.174Z,24.73
2023-05-24T21:05:16.166Z,22.63
2023-05-24T21:07:48.511Z,23.48
2023-05-24T21:10:20.222Z,16.25
2023-05-24T21:12:50.775Z,22.42
2023-05-24T21:15:20.509Z,16.75
2023-05-24T21:17:50.269Z,20.60
2023-05-24T21:20:20.093Z,23.00
2023-05-24T21:22:52.642Z,18.90
2023-05-24T21:25:22.369Z,23.02
2023-05-24T21:27:52.039Z,19.17
2023-05-24T21:30:21.791Z,21.63
2023-05-24T21:32:51.565Z,18.48
2023-05-24T21:35:21.345Z,20.17
2023-05-24T21:37:54.171Z,23.20
2023-05-24T21:40:24.420Z,22.60
2023-05-24T21:42:54.138Z,20.85
2023-05-24T21:45:23.828Z,28.40
2023-05-24T21:47:53.563Z,22.38
2023-05-24T21:50:23.483Z,22.30
2023-05-24T21:52:55.832Z,24.35
2023-05-24T21:55:25.620Z,20.20
2023-05-24T21:57:55.334Z,22.38
2023-05-24T22:00:25.963Z,22.50
2023-05-24T22:02:55.902Z,15.68
2023-05-24T22:05:27.763Z,20.33
2023-05-24T22:08:00.517Z,22.00
2023-05-24T22:10:30.288Z,23.83
2023-05-24T22:12:59.985Z,20.17
2023-05-24T22:15:31.258Z,28.08
2023-05-24T22:18:01.612Z,21.40
2023-05-24T22:20:32.055Z,17.83
2023-05-24T22:23:04.464Z,21.98
2023-05-24T22:25:34.250Z,26.10
2023-05-24T22:28:04.018Z,21.73
2023-05-24T22:30:35.279Z,21.55
2023-05-24T22:33:05.140Z,19.65
2023-05-24T22:35:35.140Z,22.07
2023-05-24T22:38:07.513Z,24.95
2023-05-24T22:40:38.967Z,25.02
2023-05-24T22:43:08.718Z,19.50
2023-05-24T22:45:38.451Z,21.33
2023-05-24T22:48:08.329Z,22.15
2023-05-24T22:50:38.572Z,19.52
2023-05-24T22:53:11.062Z,20.38
2023-05-24T22:55:40.989Z,22.20
2023-05-24T22:58:10.775Z,22.33
2023-05-24T23:00:40.633Z,24.93
2023-05-24T23:03:12.068Z,22.50
2023-05-24T23:05:42.043Z,23.10
2023-05-24T23:08:15.531Z,19.43
2023-05-24T23:10:46.978Z,23.88
2023-05-24T23:13:17.834Z,22.40
2023-05-24T23:15:48.592Z,19.42
2023-05-24T23:18:22.581Z,21.77
2023-05-24T23:20:54.197Z,21.75
2023-05-24T23:23:27.473Z,21.98
2023-05-24T23:25:57.173Z,23.17
2023-05-24T23:28:26.931Z,22.83
2023-05-24T23:30:56.721Z,19.85
2023-05-24T23:33:26.481Z,24.80
2023-05-24T23:35:56.372Z,21.08
2023-05-24T23:38:28.725Z,21.15
2023-05-24T23:40:58.538Z,25.70
2023-05-24T23:43:28.225Z,28.38
2023-05-24T23:45:57.922Z,23.50
2023-05-24T23:48:27.695Z,25.60
2023-05-24T23:50:57.448Z,28.88
2023-05-24T23:53:29.764Z,21.77
2023-05-24T23:55:59.496Z,23.67
2023-05-24T23:58:29.189Z,23.88
